• Join FlightAware (Why Join?)
  • Login
  • US Flag GB Flag 
04:27 EST


 

Airport Tracker/Info


-or-


 

Live Flight TrackerFlight Track Log ✈ N400PU ✈ 30-Sep-2013 ✈ KHUF - KLAF

Flight Track Log - Related Links

Times and Time Zones

All times are in EDT time to prevent confusion due to time zone crossing. See the N400PU flight status page for this flight to view local times or setup timezone preferences in your user account.

Time Position Orientation Groundspeed Altitude Reporting Facility
EDT Latitude Longitude Course Direction KTS MPH feet Rate Location/Type
18:51 39.4669 -87.3944 17° North 234 269 5,000  Level Chicago Center
18:52 39.5303 -87.3614 22° Northeast 245 282 5,000  Level Indianapolis Center
18:53 39.6008 -87.3292 19° North 230 265 5,000  Level Indianapolis Center
18:54 39.7735 -87.1819 17° North  Level FlightAware Approximate
18:54 39.6633 -87.2981 21° North 236 272 5,000  Level Indianapolis Center
18:55 39.8381 -87.1573 17° North  Level Estimated
18:55 39.7239 -87.2689 20° North 234 269 5,000  Level Indianapolis Center
18:56 39.9024 -87.1319 17° North  Level FlightAware Approximate
18:56 39.7817 -87.2414 20° North 225 259 5,000  Level Indianapolis Center
18:57 39.8397 -87.2139 20° North 223 257 5,000  Level Indianapolis Center
18:58 39.8986 -87.1883 18° North 222 255 5,000  Level Indianapolis Center
18:59 39.9583 -87.1672 15° North 222 255 5,000  Level Indianapolis Center
19:00 40.0278 -87.1292 23° Northeast 224 258 5,000  Level Indianapolis Center
19:01 40.0864 -87.1022 19° North 224 258 5,000 -60 Level Indianapolis Center
19:02 40.1336 -87.0792 20° North 225 259 4,900 -360 Descending Chicago Center
19:02 40.1628 -87.0339 50° Northeast 245 282 4,500 -540 Descending Chicago Center
19:03 40.1728 -87.0097 62° Northeast 242 278 4,400 -540 Descending Chicago Center
19:03 40.1928 -86.9597 62° Northeast 238 274 4,000 -720 Descending Chicago Center
19:04 40.2108 -86.9217 58° Northeast 238 274 3,700 -720 Descending Chicago Center
19:04 40.2250 -86.8856 63° Northeast 228 262 3,300 -720 Descending Chicago Center
19:05 40.2419 -86.8481 59° Northeast 234 269 3,000 -300 Descending Chicago Center
19:05 40.2547 -86.8139 64° Northeast 229 264 3,000  Level Chicago Center
19:06 40.2728 -86.7761 58° Northeast 231 266 3,000 -120 Level Chicago Center
19:06 40.2847 -86.7422 65° Northeast 217 250 2,900  Descending Chicago Center
19:07 40.3011 -86.7081 58° Northeast 224 258 3,000 -300 Climbing Chicago Center
19:07 40.3239 -86.6931 27° Northeast 222 255 2,600 -420 Descending Chicago Center
19:08 40.3586 -86.6928 360° North 227 261 2,600  Level Chicago Center
19:08 40.3839 -86.7078 336° Northwest 209 241 2,600  Level Chicago Center
19:09 40.3914 -86.7331 291° West 203 234 2,600  Level Chicago Center
19:09 40.3922 -86.7683 272° West 162 186 2,600 -120 Level Chicago Center
19:10 40.3983 -86.8050 282° West 177 204 2,500 -420 Descending Chicago Center
19:10 40.4006 -86.8261 278° West 161 185 2,200 -120 Descending Chicago Center
19:11 40.4083 -86.8611 286° West 174 200 2,400 -900 Climbing Chicago Center
19:12 40.4044 -86.8839 257° West 155 178 1,300 -3,300 Descending Chicago Center